Flight Track Log - Related Links

Times and Time Zones

All times are in EDT time to prevent confusion due to time zone crossing. See the EGF3149 flight status page for this flight to view local times or setup timezone preferences in your user account.

Time Position Orientation Groundspeed Altitude Reporting Facility
EDT Latitude Longitude Course Direction KTS MPH feet Rate Location/Type
Wed 10:43:05 AM 42.0000 -87.9667 270° West 195 224 2,400  Level Chicago TRACON
Wed 10:44:05 AM 42.0000 -88.0500 270° West 248 285 4,500 2,074 Climbing Chicago TRACON
Wed 10:45:00 AM 41.9667 -88.3250 270° West  Level FlightAware Approximate
Wed 10:45:21 AM 41.9872 -88.1672 262° West 259 298 7,100  Level Chicago Center
Wed 10:46:00 AM 41.9667 -88.4667 270° West  Level FlightAware Approximate
Wed 10:46:24 AM 41.9853 -88.2689 269° West 271 312 10,100  Level Chicago Center
Wed 10:47:00 AM 41.9667 -88.6083 270° West  Level FlightAware Approximate
Wed 10:47:26 AM 41.9664 -88.3900 258° West 293 337 12,600  Level Chicago Center
Wed 10:48:00 AM 41.9667 -88.7500 270° West  Level FlightAware Approximate
Wed 10:48:28 AM 41.9339 -88.4928 247° West 301 346 14,500  Level Chicago Center
Wed 10:49:30 AM 41.8919 -88.6014 243° Southwest 327 376 15,600 677 Climbing Chicago Center
Wed 10:50:32 AM 41.8372 -88.7161 237° Southwest 365 420 15,900 194 Climbing Chicago Center
Wed 10:51:34 AM 41.7811 -88.8386 238° Southwest 385 443 16,000 48 Climbing Chicago Center
Wed 10:52:36 AM 41.7144 -88.9858 239° Southwest 389 448 16,000  Level Chicago Center
Wed 10:53:38 AM 41.6569 -89.1097 238° Southwest 393 452 16,000  Level Chicago Center
Wed 10:54:40 AM 41.5894 -89.2228 231° Southwest 401 461 16,000  Level Chicago Center
Wed 10:55:42 AM 41.4964 -89.3025 213° Southwest 395 455 16,000  Level Chicago Center
Wed 10:56:44 AM 41.4017 -89.3792 211° Southwest 399 459 16,000 -1,248 Level Chicago Center
Wed 10:57:47 AM 41.2975 -89.4231 198° South 391 450 13,400 -2,784 Descending Chicago Center
Wed 10:58:49 AM 41.1764 -89.4706 196° South 380 437 10,200 -1,645 Descending Chicago Center
Wed 10:59:51 AM 41.0822 -89.5053 196° South 360 414 10,000 -387 Descending Chicago Center
Wed 11:00:53 AM 40.9992 -89.5025 179° South 302 348 9,400 -581 Descending Chicago Center

Login

Don't have an account? Register now (free) for customized features, flight alerts, and more!